Historique des mesures à Cassis (13260), France
Quotidien Résumé Juillet 5, 2017 Unités:  Métrique    US   Métrique/US
« Précédent (Jour)
Suivant (Jour) »
Quotidien Hebdomadaire Mensuel Annuel Période au choix
  Maximum: Minimum: Moyenne:
Température: TemperatureC °C 19.3 °C 22.5 °C
Point de rosée: DewpointC °C 10.8 °C 14.7 °C
Humidité: Humidity % 42 % 59 %
Vitesse du vent: 0 km/h 0 km/h 2.9 km/h
Rafales: 0 km/h - -
Vent:- - SE
Pression: PressurehPa hPa 1014.4 hPa -
Précipitations: 0.0 mm    
Historical Graphs
 
 
Mesures pour : Juillet 5, 2017
Heure Temperature Point de rosée Pression Vent Vitesse du vent Rafales Humidité Pluie (par heure) Conditions
TemperatureC °C DewpointC °C PressurehPa hPa Calm     Humidity % HourlyPrecipMM mm SoftwareType W/m2
00:10 21.2 °C 15.7 °C 1015.5 hPa Calm   2.3 km/h 71 % 0.0 mm open2300-1.11 W/m2
01:10 20.6 °C 15.4 °C 1015.8 hPa Calm   2.3 km/h 72 % 0.0 mm open2300-1.11 W/m2
02:11 20.3 °C 15.3 °C 1015.5 hPa North 2.3 km/h 2.3 km/h 73 % 0.0 mm open2300-1.11 W/m2
03:10 19.9 °C 14.9 °C 1015.1 hPa North 2.9 km/h 6.4 km/h 73 % 0.0 mm open2300-1.11 W/m2
04:10 20.1 °C 14.5 °C 1015.1 hPa Calm     70 % 0.0 mm open2300-1.11 W/m2
05:10 19.4 °C 14.0 °C 1014.8 hPa NNW 2.3 km/h 2.3 km/h 71 % 0.0 mm open2300-1.11 W/m2
06:11 19.3 °C 13.7 °C 1014.8 hPa Calm   7.6 km/h 70 % 0.0 mm open2300-1.11 W/m2
07:10 19.3 °C 13.7 °C 1014.8 hPa Calm     70 % 0.0 mm open2300-1.11 W/m2
08:10 22.4 °C 15.5 °C 1015.1 hPa Calm   3.4 km/h 65 % 0.0 mm open2300-1.11 W/m2
09:10 21.6 °C 15.2 °C 1015.5 hPa SSE 5.6 km/h 7.6 km/h 67 % 0.0 mm open2300-1.11 W/m2
10:10 22.5 °C 17.0 °C 1015.8 hPa SE 7.6 km/h 7.6 km/h 71 % 0.0 mm open2300-1.11 W/m2
11:11 25.6 °C 18.0 °C 1016.1 hPa SSE 9.3 km/h 9.3 km/h 63 % 0.0 mm open2300-1.11 W/m2
12:10 25.1 °C 18.3 °C 1016.1 hPa SSE 2.9 km/h 9.3 km/h 66 % 0.0 mm open2300-1.11 W/m2
13:10 26.5 °C 18.9 °C 1016.1 hPa Calm   8 km/h 63 % 0.0 mm open2300-1.11 W/m2
14:11 27.3 °C 19.1 °C 1016.1 hPa ESE 2.3 km/h 5.6 km/h 61 % 0.0 mm open2300-1.11 W/m2
15:10 27.6 °C 19.4 °C 1015.5 hPa Calm   15.6 km/h 61 % 0.0 mm open2300-1.11 W/m2
16:11 27.4 °C 18.4 °C 1015.8 hPa South 10.3 km/h 10.3 km/h 58 % 0.0 mm open2300-1.11 W/m2
18:10 27.4 °C 16.1 °C 1014.8 hPa SE 4.7 km/h 4.7 km/h 50 % 0.0 mm open2300-1.11 W/m2
19:10 27.4 °C 14.0 °C 1014.8 hPa SE 4.2 km/h 5.1 km/h 44 % 0.0 mm open2300-1.11 W/m2
20:10 26.5 °C 12.5 °C 1014.4 hPa Calm   5.1 km/h 42 % 0.0 mm open2300-1.11 W/m2
21:11 25.3 °C 11.4 °C 1014.4 hPa Calm     42 % 0.0 mm open2300-1.11 W/m2
22:10 23.8 °C 11.1 °C 1014.8 hPa North 2.3 km/h 5.1 km/h 45 % 0.0 mm open2300-1.11 W/m2
23:11 23.1 °C 10.8 °C 1015.1 hPa NW 14 km/h 14 km/h 46 % 0.0 mm open2300-1.11 W/m2
Observations météo à CASSIS
WU-History script by Weather Underground - 1 mb